Time;durP1;ratioP1;P1;durP2;ratioP2;P2;SDS_P1;SDS_P2;PMS_P1;PMS_P2;Temp;Humidity;BMP_temperature;BMP_pressure;BME280_temperature;BME280_humidity;BME280_pressure;Samples;Min_cycle;Max_cycle;Signal;HPM_P1;HPM_P2
2022/05/04 00:01:02;;;;;;;;;;;;;;;8.94;100.00;102007.88;2612819;36;20037;-49
2022/05/04 00:03:30;;;;;;;;;;;;;;;8.87;100.00;102006.53;2613199;36;20037;-49
2022/05/04 00:05:58;;;;;;;;;;;;;;;8.94;100.00;102005.19;2613237;36;20527;-49
2022/05/04 00:08:29;;;;;;;;;;;;;;;9.02;100.00;102002.84;2612860;36;20590;-48
2022/05/04 00:10:57;;;;;;;;;;;;;;;8.95;100.00;102001.53;2613043;36;19953;-48
2022/05/04 00:13:25;;;;;;;;;;;;;;;8.96;100.00;101997.03;2613162;36;20480;-52
2022/05/04 00:15:53;;;;;;;;;;;;;;;8.92;100.00;101999.03;2612691;36;20026;-48
2022/05/04 00:18:21;;;;;;;;;;;;;;;8.95;100.00;101998.84;2613179;36;20061;-49
2022/05/04 00:20:49;;;;;;;;;;;;;;;8.95;100.00;101998.84;2612945;36;20033;-49
2022/05/04 00:23:17;;;;;;;;;;;;;;;8.83;100.00;102000.47;2612892;36;20041;-48
2022/05/04 00:25:48;;;;;;;;;;;;;;;8.99;100.00;101996.84;2612929;36;20038;-51
2022/05/04 00:28:16;;;;;;;;;;;;;;;8.83;100.00;101999.63;2612895;36;20038;-49
2022/05/04 00:30:44;;;;;;;;;;;;;;;8.81;100.00;101993.50;2613563;31;20450;-52
2022/05/04 00:33:12;;;;;;;;;;;;;;;8.73;100.00;101997.53;2612842;36;20047;-47
2022/05/04 00:35:40;;;;;;;;;;;;;;;8.64;100.00;101992.72;2613103;36;19946;-48
2022/05/04 00:38:09;;;;;;;;;;;;;;;8.62;100.00;101993.78;2613016;31;20045;-51
2022/05/04 00:40:36;;;;;;;;;;;;;;;8.75;100.00;101998.28;2613839;36;20033;-48
2022/05/04 00:43:07;;;;;;;;;;;;;;;8.83;100.00;101997.78;2613846;36;20069;-48
2022/05/04 00:45:35;;;;;;;;;;;;;;;8.77;100.00;101995.50;2613730;36;19993;-52
2022/05/04 00:48:03;;;;;;;;;;;;;;;8.76;100.00;101991.97;2613565;36;20053;-48
2022/05/04 00:50:31;;;;;;;;;;;;;;;8.62;100.00;101997.31;2613578;36;19954;-53
2022/05/04 00:52:59;;;;;;;;;;;;;;;8.61;100.00;101990.22;2613176;36;20081;-55
2022/05/04 00:55:27;;;;;;;;;;;;;;;8.61;100.00;101992.06;2613222;36;20061;-51
2022/05/04 01:00:38;;;;;;;;;;;;;;;8.31;100.00;101992.97;2613275;36;19974;-48
2022/05/04 01:03:06;;;;;;;;;;;;;;;8.34;100.00;101982.91;2613272;36;20034;-50
2022/05/04 01:05:34;;;;;;;;;;;;;;;8.29;100.00;101990.38;2612784;36;20037;-49
2022/05/04 01:08:02;;;;;;;;;;;;;;;8.29;100.00;101987.69;2613538;36;19980;-50
2022/05/04 01:10:31;;;;;;;;;;;;;;;8.25;100.00;101981.63;2612695;36;19950;-48
2022/05/04 01:12:59;;;;;;;;;;;;;;;8.22;100.00;101991.69;2613383;36;20148;-48
2022/05/04 01:15:27;;;;;;;;;;;;;;;8.20;100.00;101994.47;2613284;31;19954;-49
2022/05/04 01:17:57;;;;;;;;;;;;;;;8.06;100.00;102000.66;2613047;36;20038;-55
2022/05/04 01:20:26;;;;;;;;;;;;;;;8.04;100.00;101996.34;2612344;36;20041;-48
2022/05/04 01:22:56;;;;;;;;;;;;;;;8.03;100.00;101992.78;2612726;36;20516;-51
2022/05/04 01:25:25;;;;;;;;;;;;;;;8.10;100.00;101989.75;2612511;36;20026;-51
2022/05/04 01:27:53;;;;;;;;;;;;;;;8.13;100.00;101989.59;2613029;36;19950;-50
2022/05/04 01:30:21;;;;;;;;;;;;;;;8.10;100.00;101987.94;2612748;36;20053;-52
2022/05/04 01:32:49;;;;;;;;;;;;;;;8.09;100.00;101985.34;2613243;36;20038;-54
2022/05/04 01:35:17;;;;;;;;;;;;;;;8.09;100.00;102002.28;2613054;36;20034;-49
2022/05/04 01:37:45;;;;;;;;;;;;;;;8.10;100.00;102000.47;2612858;36;19954;-50
2022/05/04 01:40:16;;;;;;;;;;;;;;;8.17;100.00;102000.03;2612533;36;19980;-49
2022/05/04 01:42:44;;;;;;;;;;;;;;;8.18;100.00;101995.53;2612926;36;20061;-49
2022/05/04 01:45:12;;;;;;;;;;;;;;;8.15;100.00;101982.28;2613628;36;20418;-50
2022/05/04 01:47:40;;;;;;;;;;;;;;;8.17;100.00;101988.41;2613166;36;19946;-53
2022/05/04 01:50:09;;;;;;;;;;;;;;;8.21;100.00;101985.44;2612770;36;20077;-47
2022/05/04 01:52:37;;;;;;;;;;;;;;;8.21;100.00;101988.13;2613589;36;20030;-49
2022/05/04 01:55:05;;;;;;;;;;;;;;;8.09;100.00;101990.72;2607088;36;20074;-52
2022/05/04 01:57:36;;;;;;;;;;;;;;;8.05;100.00;101984.66;2613785;36;20065;-48
2022/05/04 02:00:04;;;;;;;;;;;;;;;8.06;100.00;101992.59;2615662;31;19947;-49
2022/05/04 02:02:32;;;;;;;;;;;;;;;8.15;100.00;101976.94;2613549;36;20038;-50
2022/05/04 02:05:00;;;;;;;;;;;;;;;8.17;100.00;101978.56;2613237;36;20045;-49
2022/05/04 02:07:29;;;;;;;;;;;;;;;8.11;100.00;101980.75;2613462;36;19950;-47
2022/05/04 02:09:58;;;;;;;;;;;;;;;8.17;100.00;101980.38;2613432;36;19961;-53
2022/05/04 02:12:28;;;;;;;;;;;;;;;8.16;100.00;101978.66;2613945;31;19957;-48
2022/05/04 02:14:59;;;;;;;;;;;;;;;8.17;100.00;101977.69;2612991;36;19947;-51
2022/05/04 02:17:27;;;;;;;;;;;;;;;8.23;100.00;101983.56;2613591;36;20144;-49
2022/05/04 02:19:55;;;;;;;;;;;;;;;8.17;100.00;101975.00;2613300;36;20105;-47
2022/05/04 02:22:23;;;;;;;;;;;;;;;8.06;100.00;101970.31;2613608;36;20033;-49
2022/05/04 02:24:51;;;;;;;;;;;;;;;8.16;100.00;101973.31;2613174;36;19950;-49
2022/05/04 02:27:19;;;;;;;;;;;;;;;8.17;100.00;101975.88;2614411;31;20423;-50
2022/05/04 02:29:47;;;;;;;;;;;;;;;8.21;100.00;101968.50;2613116;36;19958;-50
2022/05/04 02:32:17;;;;;;;;;;;;;;;8.13;100.00;101966.31;2613033;36;20058;-53
2022/05/04 02:40:07;;;;;;;;;;;;;;;8.05;100.00;101971.25;2612284;36;19973;-48
2022/05/04 02:42:36;;;;;;;;;;;;;;;8.05;100.00;101969.44;2613307;36;19986;-49
2022/05/04 02:45:05;;;;;;;;;;;;;;;8.01;100.00;101961.66;2612493;36;20440;-48
2022/05/04 02:47:35;;;;;;;;;;;;;;;7.97;100.00;101961.00;2613221;36;20419;-54
2022/05/04 02:50:03;;;;;;;;;;;;;;;8.06;100.00;101960.44;2612783;36;20061;-48
2022/05/04 02:52:31;;;;;;;;;;;;;;;8.06;100.00;101959.59;2613491;31;20000;-52
2022/05/04 02:54:59;;;;;;;;;;;;;;;8.02;100.00;101956.22;2612152;36;19954;-48
2022/05/04 02:57:27;;;;;;;;;;;;;;;7.81;100.00;101961.03;2612955;36;20105;-50
2022/05/04 02:59:55;;;;;;;;;;;;;;;7.70;100.00;101956.31;2613002;36;19947;-48
2022/05/04 03:02:29;;;;;;;;;;;;;;;7.66;100.00;101961.97;2612950;36;20002;-50
2022/05/04 03:05:01;;;;;;;;;;;;;;;7.62;100.00;101952.38;2612833;36;19954;-48
2022/05/04 03:07:30;;;;;;;;;;;;;;;7.61;100.00;101951.53;2613060;36;20570;-48
2022/05/04 03:09:58;;;;;;;;;;;;;;;7.51;100.00;101948.50;2612378;36;19981;-50
2022/05/04 03:12:27;;;;;;;;;;;;;;;7.60;100.00;101955.13;2612953;36;20422;-48
2022/05/04 03:14:55;;;;;;;;;;;;;;;7.64;100.00;101951.34;2612398;36;20034;-49
2022/05/04 03:17:23;;;;;;;;;;;;;;;7.76;100.00;101954.22;2612569;36;20045;-49
2022/05/04 03:19:52;;;;;;;;;;;;;;;7.85;100.00;101956.38;2612731;36;19950;-52
2022/05/04 03:22:22;;;;;;;;;;;;;;;7.77;100.00;101954.13;2612252;36;19950;-48
2022/05/04 03:24:50;;;;;;;;;;;;;;;7.96;100.00;101947.69;2612859;31;20055;-48
2022/05/04 03:27:18;;;;;;;;;;;;;;;7.91;100.00;101953.31;2612277;36;19950;-48
2022/05/04 03:29:46;;;;;;;;;;;;;;;7.89;100.00;101960.56;2612031;36;19946;-49
2022/05/04 03:32:14;;;;;;;;;;;;;;;7.87;100.00;101949.94;2613098;36;20001;-47
2022/05/04 03:34:42;;;;;;;;;;;;;;;7.77;100.00;101948.78;2613011;36;19950;-53
2022/05/04 03:37:10;;;;;;;;;;;;;;;7.76;100.00;101954.22;2612627;36;20554;-52
2022/05/04 03:39:41;;;;;;;;;;;;;;;7.66;100.00;101945.88;2612029;36;19946;-48
2022/05/04 03:42:12;;;;;;;;;;;;;;;7.63;100.00;101941.56;2612349;36;20084;-52
2022/05/04 03:44:40;;;;;;;;;;;;;;;7.70;100.00;101944.75;2612456;31;19973;-49
2022/05/04 03:47:08;;;;;;;;;;;;;;;7.66;100.00;101941.38;2611971;36;19996;-47
2022/05/04 03:49:36;;;;;;;;;;;;;;;7.66;100.00;101946.75;2612647;36;19981;-48
2022/05/04 03:52:05;;;;;;;;;;;;;;;7.53;100.00;101948.41;2612650;36;20012;-49
2022/05/04 03:54:33;;;;;;;;;;;;;;;7.22;100.00;101958.22;2612610;36;20038;-49
2022/05/04 03:57:03;;;;;;;;;;;;;;;7.11;100.00;101950.81;2611073;36;20057;-50
2022/05/04 03:59:31;;;;;;;;;;;;;;;7.01;100.00;101950.44;2612826;31;20424;-49
2022/05/04 04:01:59;;;;;;;;;;;;;;;7.05;100.00;101950.28;2613116;36;20034;-50
2022/05/04 04:04:27;;;;;;;;;;;;;;;7.21;100.00;101945.75;2612120;36;20039;-53
2022/05/04 04:06:55;;;;;;;;;;;;;;;7.13;100.00;101948.03;2612968;36;20109;-54
2022/05/04 04:09:23;;;;;;;;;;;;;;;7.13;100.00;101953.38;2612521;36;19957;-48
2022/05/04 04:11:51;;;;;;;;;;;;;;;6.99;100.00;101947.00;2612560;36;20077;-49
2022/05/04 04:14:22;;;;;;;;;;;;;;;7.11;100.00;101945.44;2612758;31;20492;-50
2022/05/04 04:16:50;;;;;;;;;;;;;;;7.12;100.00;101940.94;2613745;36;20073;-53
2022/05/04 04:19:18;;;;;;;;;;;;;;;7.12;100.00;101941.78;2612926;36;20034;-49
2022/05/04 04:21:53;;;;;;;;;;;;;;;7.05;100.00;101951.13;2612770;36;19981;-48
2022/05/04 04:24:21;;;;;;;;;;;;;;;7.11;100.00;101949.91;2613577;36;20085;-50
2022/05/04 04:26:49;;;;;;;;;;;;;;;7.07;100.00;101943.88;2614477;36;20057;-50
2022/05/04 04:29:17;;;;;;;;;;;;;;;7.07;100.00;101941.22;2614732;36;20061;-50
2022/05/04 04:31:47;;;;;;;;;;;;;;;6.86;100.00;101948.63;2613889;31;20058;-47
2022/05/04 04:34:15;;;;;;;;;;;;;;;6.88;100.00;101957.44;2613045;36;20077;-48
2022/05/04 04:36:44;;;;;;;;;;;;;;;6.96;100.00;101952.53;2613497;36;20022;-51
2022/05/04 04:39:12;;;;;;;;;;;;;;;6.88;100.00;101959.25;2613036;36;20054;-47
2022/05/04 04:41:40;;;;;;;;;;;;;;;7.05;100.00;101958.31;2613825;36;19951;-47
2022/05/04 04:44:08;;;;;;;;;;;;;;;7.00;100.00;101956.75;2612718;31;19961;-52
2022/05/04 04:46:37;;;;;;;;;;;;;;;6.95;100.00;101961.50;2613678;31;20092;-50
2022/05/04 04:49:07;;;;;;;;;;;;;;;6.93;100.00;101959.84;2613381;36;19946;-50
2022/05/04 04:51:35;;;;;;;;;;;;;;;6.86;100.00;101964.69;2612906;31;20033;-46
2022/05/04 04:54:03;;;;;;;;;;;;;;;6.91;100.00;101959.94;2612654;31;20054;-49
2022/05/04 04:56:31;;;;;;;;;;;;;;;6.88;100.00;101960.09;2613152;36;20030;-49
2022/05/04 04:58:59;;;;;;;;;;;;;;;7.07;100.00;101961.78;2613485;36;20029;-52
2022/05/04 05:01:27;;;;;;;;;;;;;;;7.14;100.00;101960.44;2613477;36;19957;-48
2022/05/04 05:03:55;;;;;;;;;;;;;;;7.19;100.00;101963.75;2612642;36;20069;-49
2022/05/04 05:06:27;;;;;;;;;;;;;;;7.15;100.00;101960.34;2612634;36;20000;-51
2022/05/04 05:08:55;;;;;;;;;;;;;;;7.17;100.00;101960.31;2613492;36;19972;-46
2022/05/04 05:11:23;;;;;;;;;;;;;;;7.19;100.00;101963.75;2612850;36;19946;-53
2022/05/04 05:16:34;;;;;;;;;;;;;;;7.30;100.00;101955.09;2612825;36;19946;-49
2022/05/04 05:19:03;;;;;;;;;;;;;;;7.31;100.00;101952.31;2614353;36;20285;-47
2022/05/04 05:21:34;;;;;;;;;;;;;;;7.18;100.00;101954.84;2614439;36;20423;-49
2022/05/04 05:24:02;;;;;;;;;;;;;;;7.36;100.00;101960.09;2613728;36;19947;-49
2022/05/04 05:26:30;;;;;;;;;;;;;;;7.56;100.00;101950.91;2612924;36;20073;-49
2022/05/04 05:28:58;;;;;;;;;;;;;;;7.70;100.00;101948.28;2613313;36;19957;-49
2022/05/04 05:31:26;;;;;;;;;;;;;;;7.81;100.00;101955.69;2606326;31;19954;-54
2022/05/04 05:33:54;;;;;;;;;;;;;;;7.82;100.00;101953.88;2612966;36;20473;-51
2022/05/04 05:36:22;;;;;;;;;;;;;;;8.00;100.00;101947.41;2612146;36;20455;-52
2022/05/04 05:38:52;;;;;;;;;;;;;;;8.14;100.00;101948.38;2612531;36;20523;-53
2022/05/04 05:41:23;;;;;;;;;;;;;;;8.16;100.00;101951.84;2612713;36;19950;-49
2022/05/04 05:43:52;;;;;;;;;;;;;;;8.27;100.00;101957.41;2613632;36;20038;-49
2022/05/04 05:46:20;;;;;;;;;;;;;;;8.30;100.00;101953.69;2613399;36;20087;-50
2022/05/04 05:51:13;;;;;;;;;;;;;;;8.38;100.00;101954.94;2613422;54;19938;-52
2022/05/04 05:53:41;;;;;;;;;;;;;;;8.43;100.00;101960.00;2612875;36;20480;-48
2022/05/04 05:56:12;;;;;;;;;;;;;;;8.57;100.00;101959.19;2613140;31;20058;-49
2022/05/04 06:01:18;;;;;;;;;;;;;;;8.66;100.00;101963.97;2612355;36;20845;-53
2022/05/04 06:03:46;;;;;;;;;;;;;;;8.66;100.00;101952.38;2614011;39;20347;-48
2022/05/04 06:06:15;;;;;;;;;;;;;;;8.76;100.00;101948.16;2615054;36;20073;-49
2022/05/04 06:11:18;;;;;;;;;;;;;;;9.14;100.00;101947.50;2615319;54;19949;-49
2022/05/04 06:13:53;;;;;;;;;;;;;;;9.25;100.00;101944.13;2614541;36;19946;-50
2022/05/04 06:18:54;;;;;;;;;;;;;;;9.61;100.00;101946.19;2614593;54;19973;-50
2022/05/04 06:23:49;;;;;;;;;;;;;;;9.75;100.00;101939.88;2618166;31;20487;-48
2022/05/04 06:28:53;;;;;;;;;;;;;;;9.85;100.00;101941.94;2613258;36;19952;-51
2022/05/04 06:38:52;;;;;;;;;;;;;;;10.12;100.00;101945.41;2612680;36;19946;-50
2022/05/04 06:46:20;;;;;;;;;;;;;;;10.09;100.00;101940.25;2612230;36;19947;-52
2022/05/04 06:51:22;;;;;;;;;;;;;;;9.90;100.00;101950.56;2613647;39;20367;-52
2022/05/04 06:56:15;;;;;;;;;;;;;;;10.18;100.00;101950.34;2613022;54;19938;-50
2022/05/04 07:03:54;;;;;;;;;;;;;;;10.25;100.00;101953.50;2612681;54;19953;-46
2022/05/04 07:11:27;;;;;;;;;;;;;;;10.46;100.00;101948.44;2612342;54;19954;-50
2022/05/04 07:18:50;;;;;;;;;;;;;;;10.40;100.00;101948.91;2611895;36;20471;-53
2022/05/04 07:21:21;;;;;;;;;;;;;;;10.80;100.00;101956.81;2612464;36;20041;-53
2022/05/04 07:23:49;;;;;;;;;;;;;;;10.62;100.00;101959.00;2612851;36;19973;-54
2022/05/04 07:36:09;;;;;;;;;;;;;;;11.00;100.00;101951.84;2611711;36;19974;-51
2022/05/04 07:38:40;;;;;;;;;;;;;;;11.04;100.00;101953.31;2613068;36;19950;-51
2022/05/04 07:43:48;;;;;;;;;;;;;;;11.26;100.00;101957.13;2613028;36;19951;-49
2022/05/04 07:58:53;;;;;;;;;;;;;;;11.51;100.00;101973.22;2612192;54;19931;-47
2022/05/04 08:08:53;;;;;;;;;;;;;;;11.55;100.00;101974.66;2612107;31;19993;-47
2022/05/04 08:11:22;;;;;;;;;;;;;;;11.87;98.02;101970.53;2612252;36;20001;-54
2022/05/04 08:13:52;;;;;;;;;;;;;;;11.73;100.00;101971.56;2613208;36;20775;-55
2022/05/04 08:16:20;;;;;;;;;;;;;;;11.79;100.00;101971.09;2612432;36;20073;-47
2022/05/04 08:26:08;;;;;;;;;;;;;;;11.74;100.00;101974.16;2612348;36;20223;-48
2022/05/04 08:33:35;;;;;;;;;;;;;;;12.37;97.70;101981.13;2612704;54;19989;31
2022/05/04 08:36:03;;;;;;;;;;;;;;;12.64;88.80;101985.31;2612863;36;19954;-50
2022/05/04 08:45:56;;;;;;;;;;;;;;;13.76;80.51;101972.59;2612459;54;20196;-60
2022/05/04 08:56:00;;;;;;;;;;;;;;;13.51;86.66;101973.81;2605588;39;20422;-59
2022/05/04 08:58:30;;;;;;;;;;;;;;;13.23;80.04;101968.78;2611909;31;19946;-51
2022/05/04 09:05:58;;;;;;;;;;;;;;;13.88;77.08;101962.59;2613379;54;20482;31
2022/05/04 09:13:28;;;;;;;;;;;;;;;13.47;83.39;101967.78;2612744;54;19938;-48
2022/05/04 09:23:36;;;;;;;;;;;;;;;13.29;76.53;101952.09;2612839;54;20404;-49
2022/05/04 09:26:06;;;;;;;;;;;;;;;12.90;88.59;101950.81;2620181;31;20055;-50
2022/05/04 09:28:37;;;;;;;;;;;;;;;13.27;81.79;101955.91;2614306;54;20078;-61
2022/05/04 09:31:06;;;;;;;;;;;;;;;14.10;79.47;101948.06;2612549;36;20049;-52
2022/05/04 09:46:34;;;;;;;;;;;;;;;13.36;82.61;101957.00;2613841;31;20405;31
2022/05/04 09:49:09;;;;;;;;;;;;;;;14.26;80.98;101939.47;2613321;36;20039;-57
2022/05/04 09:51:38;;;;;;;;;;;;;;;14.85;76.40;101940.63;2613324;36;19950;-53
2022/05/04 10:01:26;;;;;;;;;;;;;;;14.75;66.71;101934.31;2612939;46;19950;-60
2022/05/04 10:03:54;;;;;;;;;;;;;;;15.21;64.40;101933.72;2613220;36;19958;-49
2022/05/04 10:11:32;;;;;;;;;;;;;;;14.53;69.86;101925.34;2612532;54;19971;31
2022/05/04 10:19:05;;;;;;;;;;;;;;;14.93;65.12;101932.66;2613037;54;20061;-51
2022/05/04 10:21:37;;;;;;;;;;;;;;;14.94;64.81;101928.09;2612328;36;19950;-59
2022/05/04 10:24:07;;;;;;;;;;;;;;;15.01;63.74;101923.81;2612652;36;20047;-48
2022/05/04 10:26:36;;;;;;;;;;;;;;;15.19;65.42;101929.41;2613538;36;19954;-53
2022/05/04 10:51:41;;;;;;;;;;;;;;;16.06;60.04;101909.59;2612934;31;20367;-52
2022/05/04 11:01:26;;;;;;;;;;;;;;;15.83;59.74;101905.50;2612554;54;19970;-51
2022/05/04 11:18:42;;;;;;;;;;;;;;;15.86;57.80;101902.50;2612014;36;19964;-53
2022/05/04 11:21:12;;;;;;;;;;;;;;;16.22;58.74;101897.25;2612787;36;20053;-58
2022/05/04 11:23:40;;;;;;;;;;;;;;;16.09;58.82;101900.28;2612366;36;20819;-51
2022/05/04 11:26:08;;;;;;;;;;;;;;;16.33;55.32;101897.06;2613236;36;20444;-51
2022/05/04 11:28:37;;;;;;;;;;;;;;;16.98;56.55;101894.31;2612891;36;19951;-55
2022/05/04 11:31:05;;;;;;;;;;;;;;;17.65;54.48;101885.81;2612847;31;19955;-52
2022/05/04 11:40:54;;;;;;;;;;;;;;;16.72;55.40;101902.31;2612161;36;20745;-56
2022/05/04 11:50:46;;;;;;;;;;;;;;;16.75;58.46;101893.84;2612523;36;20375;-52
2022/05/04 11:58:29;;;;;;;;;;;;;;;16.80;53.29;101891.56;2612417;54;19945;-59
2022/05/04 12:01:00;;;;;;;;;;;;;;;16.89;56.95;101886.25;2612441;36;19951;-51
2022/05/04 12:11:01;;;;;;;;;;;;;;;16.90;56.01;101875.22;2606051;36;20720;-50
2022/05/04 12:28:36;;;;;;;;;;;;;;;17.75;54.93;101863.91;2612004;36;19970;-56
2022/05/04 12:49:03;;;;;;;;;;;;;;;18.03;53.54;101852.88;2612709;47;20053;-63
2022/05/04 12:51:31;;;;;;;;;;;;;;;18.41;55.02;101864.34;2613311;36;19950;-55
2022/05/04 12:53:59;;;;;;;;;;;;;;;19.52;50.40;101846.88;2612881;36;19958;-53
2022/05/04 13:04:02;;;;;;;;;;;;;;;18.89;50.00;101846.47;2613040;54;19948;-49
2022/05/04 13:21:29;;;;;;;;;;;;;;;18.16;53.67;101838.84;2606227;31;19947;-49
2022/05/04 13:31:37;;;;;;;;;;;;;;;18.48;52.33;101829.13;2613067;36;19953;-55
2022/05/04 13:34:07;;;;;;;;;;;;;;;18.16;52.08;101834.22;2612925;36;20022;-56
2022/05/04 14:11:53;;;;;;;;;;;;;;;20.33;47.73;101822.28;2612635;54;19962;-57
2022/05/04 14:21:54;;;;;;;;;;;;;;;20.81;45.60;101819.53;2612768;54;19962;-54
2022/05/04 14:24:26;;;;;;;;;;;;;;;20.63;45.50;101809.69;2612338;36;19947;-52
2022/05/04 14:26:57;;;;;;;;;;;;;;;20.06;46.95;101816.25;2611645;36;20451;-52
2022/05/04 14:29:25;;;;;;;;;;;;;;;19.76;46.10;101806.91;2612679;36;19959;-58
2022/05/04 14:31:53;;;;;;;;;;;;;;;19.84;45.59;101806.06;2613206;36;20525;-50
2022/05/04 14:34:21;;;;;;;;;;;;;;;19.64;44.39;101800.09;2612486;36;19946;-52
2022/05/04 14:36:50;;;;;;;;;;;;;;;19.86;45.55;101804.88;2613143;36;19950;-51
2022/05/04 14:39:19;;;;;;;;;;;;;;;19.43;46.23;101804.22;2612562;36;19957;-51
2022/05/04 14:41:47;;;;;;;;;;;;;;;20.15;45.01;101803.41;2613469;31;19946;-55
2022/05/04 14:51:37;;;;;;;;;;;;;;;19.35;44.44;101791.41;2612601;54;19947;-54
2022/05/04 15:16:28;;;;;;;;;;;;;;;18.15;51.47;101783.50;2616893;31;19954;-54
2022/05/04 15:26:27;;;;;;;;;;;;;;;18.10;56.37;101791.28;2607859;36;19955;-53
2022/05/04 15:36:22;;;;;;;;;;;;;;;18.53;52.74;101792.13;2612084;36;20468;-53
2022/05/04 15:38:50;;;;;;;;;;;;;;;18.30;52.97;101791.91;2612964;36;20406;-48
2022/05/04 15:41:21;;;;;;;;;;;;;;;17.77;54.40;101796.53;2612929;36;19947;-54
2022/05/04 15:48:54;;;;;;;;;;;;;;;18.28;54.83;101790.34;2611927;54;20416;-50
2022/05/04 15:51:27;;;;;;;;;;;;;;;17.87;56.36;101788.25;2612626;32;19959;-50
2022/05/04 16:01:21;;;;;;;;;;;;;;;16.36;71.00;101800.84;2612040;36;20046;-50
2022/05/04 16:11:34;;;;;;;;;;;;;;;16.70;84.04;101805.63;2617414;36;19969;-55
2022/05/04 16:14:02;;;;;;;;;;;;;;;16.73;80.54;101799.88;2613167;36;20017;-58
2022/05/04 16:16:30;;;;;;;;;;;;;;;16.81;77.28;101798.13;2613491;36;19962;-58
2022/05/04 16:26:34;;;;;;;;;;;;;;;17.38;70.88;101791.50;2612845;36;19981;-60
2022/05/04 16:29:03;;;;;;;;;;;;;;;17.37;71.31;101786.22;2612228;36;20358;-50
2022/05/04 16:44:03;;;;;;;;;;;;;;;17.11;75.08;101784.31;2613823;36;19957;-52
2022/05/04 16:49:10;;;;;;;;;;;;;;;16.80;75.03;101782.81;2612794;36;19961;-61
2022/05/04 16:51:38;;;;;;;;;;;;;;;16.89;78.63;101786.50;2614471;36;20030;-52
2022/05/04 16:56:44;;;;;;;;;;;;;;;16.18;84.69;101789.88;2614305;54;19954;-48
2022/05/04 16:59:26;;;;;;;;;;;;;;;15.82;88.89;101789.75;2615512;54;19938;-58
2022/05/04 17:02:01;;;;;;;;;;;;;;;16.04;83.92;101781.22;2613593;36;20989;-50
2022/05/04 17:04:34;;;;;;;;;;;;;;;15.69;90.91;101782.75;2619544;31;19950;-53
2022/05/04 17:07:02;;;;;;;;;;;;;;;15.92;91.74;101787.88;2613008;36;20440;-61
2022/05/04 17:09:37;;;;;;;;;;;;;;;15.04;100.00;101788.84;2613648;36;19977;-54
2022/05/04 17:12:07;;;;;;;;;;;;;;;14.92;100.00;101789.97;2612679;36;20546;-53
2022/05/04 17:27:32;;;;;;;;;;;;;;;14.94;100.00;101782.56;2613618;54;19950;-60
2022/05/04 17:30:01;;;;;;;;;;;;;;;14.92;100.00;101784.56;2612682;36;19989;-49
2022/05/04 17:37:44;;;;;;;;;;;;;;;14.76;100.00;101784.28;2612923;36;19970;-52
2022/05/04 17:40:13;;;;;;;;;;;;;;;14.70;100.00;101786.53;2609465;36;20018;-47
2022/05/04 17:42:45;;;;;;;;;;;;;;;14.49;100.00;101788.47;2612991;36;20459;-50
2022/05/04 17:45:13;;;;;;;;;;;;;;;14.41;100.00;101789.16;2612596;36;19961;-58
2022/05/04 17:50:14;;;;;;;;;;;;;;;14.30;100.00;101786.56;2613449;36;19970;-48
2022/05/04 17:52:42;;;;;;;;;;;;;;;14.29;100.00;101792.97;2613585;36;20385;-49
2022/05/04 18:00:32;;;;;;;;;;;;;;;13.57;100.00;101801.03;2611323;54;20452;-48
2022/05/04 18:05:40;;;;;;;;;;;;;;;13.58;100.00;101797.34;2613319;36;19988;-61
2022/05/04 18:08:09;;;;;;;;;;;;;;;13.28;100.00;101801.66;2615966;36;19955;-56
2022/05/04 18:10:37;;;;;;;;;;;;;;;13.47;100.00;101795.56;2612694;36;20127;-47
2022/05/04 18:13:07;;;;;;;;;;;;;;;13.26;100.00;101798.22;2612625;36;19946;-50
2022/05/04 18:18:11;;;;;;;;;;;;;;;13.19;100.00;101801.56;2612463;36;20351;-59
2022/05/04 18:20:39;;;;;;;;;;;;;;;13.42;100.00;101807.75;2613490;36;20015;-55
2022/05/04 18:23:08;;;;;;;;;;;;;;;13.30;100.00;101805.06;2612370;36;20045;-49
2022/05/04 18:25:37;;;;;;;;;;;;;;;13.28;100.00;101812.47;2612503;36;20615;-52
2022/05/04 18:28:06;;;;;;;;;;;;;;;13.22;100.00;101814.81;2612588;36;19977;-59
2022/05/04 18:30:40;;;;;;;;;;;;;;;13.24;100.00;101813.72;2613251;54;19939;31
2022/05/04 18:33:13;;;;;;;;;;;;;;;13.11;100.00;101810.34;2613560;54;20008;-50
2022/05/04 18:35:41;;;;;;;;;;;;;;;13.07;100.00;101816.97;2612261;36;20791;-51
2022/05/04 18:38:09;;;;;;;;;;;;;;;13.12;100.00;101817.47;2610459;36;19946;-50
2022/05/04 18:40:39;;;;;;;;;;;;;;;12.99;100.00;101822.19;2613071;52;19945;-61
2022/05/04 18:43:16;;;;;;;;;;;;;;;12.88;100.00;101829.34;2611390;36;20421;31
2022/05/04 18:45:46;;;;;;;;;;;;;;;12.70;100.00;101825.44;2612195;36;19954;-50
2022/05/04 18:48:18;;;;;;;;;;;;;;;12.69;100.00;101823.72;2609202;36;20785;-50
2022/05/04 18:50:46;;;;;;;;;;;;;;;12.69;100.00;101823.72;2611843;36;20356;-59
2022/05/04 18:53:18;;;;;;;;;;;;;;;12.90;100.00;101826.53;2611045;54;19974;-55
2022/05/04 18:55:46;;;;;;;;;;;;;;;12.66;100.00;101826.69;2611758;36;20440;-49
2022/05/04 18:58:16;;;;;;;;;;;;;;;12.53;100.00;101830.41;2616726;36;19950;-53
2022/05/04 19:00:46;;;;;;;;;;;;;;;12.59;100.00;101829.91;2610276;36;19950;-57
2022/05/04 19:03:16;;;;;;;;;;;;;;;12.33;100.00;101832.00;2611422;36;19950;-50
2022/05/04 19:08:29;;;;;;;;;;;;;;;12.27;100.00;101835.22;2610735;36;19953;-53
2022/05/04 19:10:57;;;;;;;;;;;;;;;12.41;100.00;101839.47;2612736;31;19965;-53
2022/05/04 19:13:28;;;;;;;;;;;;;;;12.26;100.00;101850.56;2612519;31;20054;-48
2022/05/04 19:15:57;;;;;;;;;;;;;;;12.24;100.00;101844.41;2610488;36;19946;-47
2022/05/04 19:21:06;;;;;;;;;;;;;;;12.08;100.00;101849.31;2612028;36;19969;-54
2022/05/04 19:23:34;;;;;;;;;;;;;;;12.05;100.00;101858.50;2612355;36;20082;-51
2022/05/04 19:28:54;;;;;;;;;;;;;;;12.12;100.00;101860.69;2632543;36;19961;-51
2022/05/04 19:34:12;;;;;;;;;;;;;;;11.99;100.00;101863.53;2634506;36;20376;-49
2022/05/04 19:39:22;;;;;;;;;;;;;;;11.87;100.00;101870.72;2629227;36;19953;-53
2022/05/04 19:41:54;;;;;;;;;;;;;;;11.66;100.00;101873.22;2609867;31;19954;-49
2022/05/04 19:44:24;;;;;;;;;;;;;;;11.83;100.00;101875.47;2622172;36;19938;-47
2022/05/04 19:52:19;;;;;;;;;;;;;;;11.75;100.00;101880.63;2610596;36;20386;-49
2022/05/04 19:54:51;;;;;;;;;;;;;;;11.44;100.00;101884.78;2611494;54;19974;-49
2022/05/04 19:57:19;;;;;;;;;;;;;;;11.57;100.00;101886.47;2612595;36;20506;-55
2022/05/04 19:59:51;;;;;;;;;;;;;;;11.57;100.00;101891.84;2613161;54;20001;-53
2022/05/04 20:02:20;;;;;;;;;;;;;;;11.59;100.00;101886.34;2612890;31;19947;-51
2022/05/04 20:04:50;;;;;;;;;;;;;;;11.48;100.00;101895.22;2612797;31;20419;-58
2022/05/04 20:09:54;;;;;;;;;;;;;;;11.41;100.00;101896.69;2615501;36;20470;-52
2022/05/04 20:14:50;;;;;;;;;;;;;;;11.31;100.00;101895.66;2611723;36;19962;-52
2022/05/04 20:17:19;;;;;;;;;;;;;;;11.33;100.00;101896.41;2612450;54;20482;-49
2022/05/04 20:27:55;;;;;;;;;;;;;;;11.04;100.00;101908.38;2615066;54;19946;-53
2022/05/04 20:30:25;;;;;;;;;;;;;;;10.95;100.00;101905.50;2616551;36;19977;-51
2022/05/04 20:35:38;;;;;;;;;;;;;;;10.73;100.00;101911.59;2612831;54;19946;-50
2022/05/04 20:40:55;;;;;;;;;;;;;;;10.48;100.00;101919.63;2613053;36;19950;-49
2022/05/04 20:46:18;;;;;;;;;;;;;;;10.31;100.00;101922.59;2617067;36;20347;-54
2022/05/04 20:48:49;;;;;;;;;;;;;;;10.26;100.00;101919.38;2614100;36;20435;-49
2022/05/04 20:56:30;;;;;;;;;;;;;;;10.16;100.00;101920.03;2615287;36;20411;-56
2022/05/04 21:01:25;;;;;;;;;;;;;;;10.01;100.00;101921.06;2613269;36;19953;-51
2022/05/04 21:03:58;;;;;;;;;;;;;;;9.95;100.00;101921.50;2614522;31;19953;-49
2022/05/04 21:06:27;;;;;;;;;;;;;;;9.90;100.00;101924.50;2614838;36;19953;-49
2022/05/04 21:11:40;;;;;;;;;;;;;;;9.77;100.00;101924.50;2616227;54;19953;-52
2022/05/04 21:16:43;;;;;;;;;;;;;;;9.75;100.00;101925.56;2613428;36;19985;-50
2022/05/04 21:24:38;;;;;;;;;;;;;;;9.74;100.00;101927.38;2612732;36;19950;-52
2022/05/04 21:29:47;;;;;;;;;;;;;;;9.72;100.00;101925.78;2612494;54;19970;-57
2022/05/04 21:32:16;;;;;;;;;;;;;;;9.61;100.00;101929.19;2617059;36;21759;-51